Time;durP1;ratioP1;P1;durP2;ratioP2;P2;SDS_P1;SDS_P2;PMS_P1;PMS_P2;Temp;Humidity;BMP_temperature;BMP_pressure;BME280_temperature;BME280_humidity;BME280_pressure;Samples;Min_cycle;Max_cycle;Signal;HPM_P1;HPM_P2
2023/04/30 00:02:11;;;;;;;13.10;9.57;;;;;13.10;98944.00;;;;5054751;28;20041;-55
2023/04/30 00:04:38;;;;;;;14.77;9.95;;;;;13.00;98940.00;;;;5054999;28;20091;-57
2023/04/30 00:07:04;;;;;;;13.05;9.13;;;;;13.00;98947.00;;;;5054746;28;20110;-59
2023/04/30 00:09:31;;;;;;;12.55;9.48;;;;;13.10;98948.00;;;;5054436;28;20145;-57
2023/04/30 00:11:57;;;;;;;15.15;10.07;;;;;13.10;98949.00;;;;5054606;28;20123;-55
2023/04/30 00:14:24;;;;;;;13.90;10.00;;;;;13.20;98945.00;;;;5053378;28;20045;-57
2023/04/30 00:16:50;;;;;;;13.93;10.55;;;;;13.20;98949.00;;;;5054844;28;20163;-58
2023/04/30 00:19:17;;;;;;;14.68;9.80;;;;;13.20;98948.00;;;;5059225;28;20049;-56
2023/04/30 00:21:43;;;;;;;12.50;10.20;;;;;13.20;98943.00;;;;5060195;28;20049;-55
2023/04/30 00:24:10;;;;;;;12.85;10.35;;;;;13.20;98942.00;;;;5056682;28;20456;-57
2023/04/30 00:26:36;;;;;;;14.30;11.00;;;;;13.20;98946.00;;;;5054602;28;20498;-56
2023/04/30 00:29:03;;;;;;;14.75;9.75;;;;;13.10;98942.00;;;;5052721;28;20045;-58
2023/04/30 00:31:30;;;;;;;13.93;10.68;;;;;13.20;98942.00;;;;5036834;28;20073;-57
2023/04/30 00:33:56;;;;;;;13.52;10.52;;;;;13.20;98941.00;;;;5054122;28;20112;-56
2023/04/30 00:36:23;;;;;;;13.50;10.55;;;;;13.10;98942.00;;;;5052809;28;20040;-61
2023/04/30 00:38:49;;;;;;;12.80;9.85;;;;;13.20;98943.00;;;;5052339;28;20187;-57
2023/04/30 00:41:17;;;;;;;14.52;10.75;;;;;13.30;98944.00;;;;5053889;28;20037;-57
2023/04/30 00:43:45;;;;;;;13.80;10.95;;;;;13.30;98949.00;;;;5053539;28;20041;-57
2023/04/30 00:46:12;;;;;;;14.38;11.63;;;;;13.30;98946.00;;;;5052438;28;20056;-55
2023/04/30 00:48:38;;;;;;;13.35;10.38;;;;;13.30;98948.00;;;;5053041;28;20048;-57
2023/04/30 00:51:05;;;;;;;13.27;11.10;;;;;13.30;98946.00;;;;5053765;28;20051;-57
2023/04/30 00:53:32;;;;;;;15.68;11.10;;;;;13.20;98943.00;;;;5052362;28;20044;-56
2023/04/30 00:55:59;;;;;;;15.60;10.80;;;;;13.30;98945.00;;;;5052386;28;20041;-56
2023/04/30 00:58:26;;;;;;;14.90;11.35;;;;;13.20;98950.00;;;;5035705;28;20060;-61
2023/04/30 01:00:53;;;;;;;17.27;11.45;;;;;13.10;98944.00;;;;5053527;28;20045;-62
2023/04/30 01:03:21;;;;;;;12.32;10.55;;;;;13.10;98935.00;;;;5052345;28;20506;-61
2023/04/30 01:05:49;;;;;;;15.10;11.30;;;;;13.10;98941.00;;;;5052225;28;20043;-60
2023/04/30 01:08:15;;;;;;;16.10;11.30;;;;;13.10;98938.00;;;;5053369;28;20456;-61
2023/04/30 01:10:53;;;;;;;15.13;12.00;;;;;13.00;98929.00;;;;5053191;28;20041;-59
2023/04/30 01:13:39;;;;;;;18.55;12.45;;;;;13.00;98932.00;;;;5053191;28;20049;-61
2023/04/30 01:16:14;;;;;;;14.45;10.82;;;;;12.90;98927.00;;;;5053470;28;20067;-61
2023/04/30 01:18:47;;;;;;;16.65;11.10;;;;;12.90;98923.00;;;;5051659;28;20052;-61
2023/04/30 01:21:16;;;;;;;16.50;11.80;;;;;13.00;98923.00;;;;5053295;28;20041;-61
2023/04/30 01:24:09;;;;;;;14.38;11.43;;;;;13.00;98929.00;;;;5052995;28;20048;-60
2023/04/30 01:27:05;;;;;;;15.30;12.18;;;;;13.00;98934.00;;;;5052006;28;20044;-59
2023/04/30 01:29:33;;;;;;;18.40;12.50;;;;;12.90;98935.00;;;;5052955;28;20037;-61
2023/04/30 01:32:01;;;;;;;15.10;11.70;;;;;12.90;98934.00;;;;5051498;28;20052;-61
2023/04/30 01:34:28;;;;;;;17.45;12.70;;;;;12.80;98924.00;;;;5051598;28;20053;-61
2023/04/30 01:37:34;;;;;;;14.32;12.15;;;;;12.80;98929.00;;;;5051601;28;20049;-59
2023/04/30 01:40:23;;;;;;;15.38;12.30;;;;;12.80;98928.00;;;;5013578;28;20694;-61
2023/04/30 01:43:08;;;;;;;18.80;12.50;;;;;12.90;98930.00;;;;5052356;28;20128;-60
2023/04/30 01:46:03;;;;;;;14.18;12.18;;;;;13.00;98934.00;;;;5034995;28;20045;-60
2023/04/30 01:48:33;;;;;;;18.45;13.25;;;;;12.90;98935.00;;;;5051230;28;20466;-60
2023/04/30 01:51:31;;;;;;;16.88;13.30;;;;;12.80;98934.00;;;;5051386;28;20409;-60
2023/04/30 01:54:04;;;;;;;19.55;13.50;;;;;12.80;98942.00;;;;5051330;28;20049;-60
2023/04/30 01:56:37;;;;;;;17.87;13.73;;;;;12.70;98935.00;;;;5052641;28;20045;-60
2023/04/30 01:59:04;;;;;;;18.52;14.10;;;;;12.80;98937.00;;;;5052432;28;20591;-60
2023/04/30 02:01:32;;;;;;;18.42;13.73;;;;;12.80;98936.00;;;;5051786;28;20420;-61
2023/04/30 02:03:59;;;;;;;17.42;13.40;;;;;12.70;98931.00;;;;5052478;28;20063;-61
2023/04/30 02:06:27;;;;;;;18.13;13.43;;;;;12.70;98933.00;;;;5052385;28;20045;-61
2023/04/30 02:09:01;;;;;;;16.83;13.63;;;;;12.70;98926.00;;;;5052185;28;20079;-61
2023/04/30 02:11:28;;;;;;;21.55;14.65;;;;;12.70;98922.00;;;;5052809;28;20098;-59
2023/04/30 02:13:55;;;;;;;16.77;14.02;;;;;12.70;98929.00;;;;5052530;28;20079;-61
2023/04/30 02:16:22;;;;;;;16.70;13.40;;;;;12.70;98924.00;;;;5051467;28;20045;-61
2023/04/30 02:18:49;;;;;;;16.48;13.70;;;;;12.70;98920.00;;;;5051782;28;20045;-61
2023/04/30 02:21:16;;;;;;;18.80;14.93;;;;;12.70;98925.00;;;;5052307;28;20040;-62
2023/04/30 02:23:43;;;;;;;22.27;15.82;;;;;12.80;98923.00;;;;5052065;28;20045;-61
2023/04/30 02:26:09;;;;;;;20.25;14.75;;;;;12.70;98928.00;;;;5052101;28;20041;-56
2023/04/30 02:28:36;;;;;;;19.42;15.77;;;;;12.70;98928.00;;;;5050346;28;20049;-56
2023/04/30 02:31:03;;;;;;;20.55;15.27;;;;;12.70;98927.00;;;;5051973;28;20048;-58
2023/04/30 02:33:30;;;;;;;16.33;13.60;;;;;12.70;98933.00;;;;5051602;28;20128;-57
2023/04/30 02:35:59;;;;;;;20.40;14.65;;;;;12.60;98943.00;;;;5050494;28;20053;-57
2023/04/30 02:38:25;;;;;;;19.98;15.32;;;;;12.60;98940.00;;;;5051887;28;20095;-55
2023/04/30 02:40:52;;;;;;;23.30;15.35;;;;;12.60;98933.00;;;;5050204;28;20056;-56
2023/04/30 02:43:18;;;;;;;21.42;15.23;;;;;12.60;98941.00;;;;5051789;28;20509;-56
2023/04/30 02:45:45;;;;;;;18.27;14.40;;;;;12.50;98931.00;;;;5051828;28;20045;-60
2023/04/30 02:48:12;;;;;;;17.90;15.05;;;;;12.50;98931.00;;;;5050213;28;20132;-61
2023/04/30 02:50:38;;;;;;;20.05;15.45;;;;;12.50;98933.00;;;;5051297;28;20417;-61
2023/04/30 02:53:05;;;;;;;25.48;15.70;;;;;12.50;98931.00;;;;5051748;28;20045;-61
2023/04/30 02:55:31;;;;;;;20.20;16.17;;;;;12.50;98928.00;;;;5050516;28;20074;-59
2023/04/30 02:57:58;;;;;;;22.33;16.08;;;;;12.50;98936.00;;;;5051547;28;20037;-60
2023/04/30 03:00:25;;;;;;;21.58;16.58;;;;;12.50;98931.00;;;;5050160;28;20073;-56
2023/04/30 03:02:51;;;;;;;23.00;15.82;;;;;12.50;98930.00;;;;5050204;28;20110;-60
2023/04/30 03:05:18;;;;;;;21.85;16.83;;;;;12.50;98931.00;;;;5050205;28;20494;-61
2023/04/30 03:07:45;;;;;;;20.35;15.77;;;;;12.50;98935.00;;;;5051745;28;20037;-60
2023/04/30 03:10:11;;;;;;;19.20;15.80;;;;;12.40;98925.00;;;;5051494;28;20044;-61
2023/04/30 03:12:38;;;;;;;23.30;16.52;;;;;12.30;98923.00;;;;5053302;28;20049;-59
2023/04/30 03:15:05;;;;;;;21.25;16.45;;;;;12.30;98915.00;;;;5055477;28;20068;-60
2023/04/30 03:17:31;;;;;;;22.60;16.75;;;;;12.30;98915.00;;;;5054493;28;20051;-60
2023/04/30 03:19:58;;;;;;;23.02;17.77;;;;;12.30;98926.00;;;;5055606;28;20102;-58
2023/04/30 03:22:25;;;;;;;24.52;16.35;;;;;12.20;98914.00;;;;5055179;28;20052;-59
2023/04/30 03:24:52;;;;;;;24.23;17.45;;;;;12.20;98911.00;;;;5056681;28;20049;-59
2023/04/30 03:27:18;;;;;;;20.17;15.93;;;;;12.10;98907.00;;;;5056334;28;20112;-59
2023/04/30 03:29:45;;;;;;;24.05;18.10;;;;;12.10;98908.00;;;;5056575;28;20102;-59
2023/04/30 03:32:11;;;;;;;21.55;17.10;;;;;12.10;98906.00;;;;5055174;28;20040;-60
2023/04/30 03:34:38;;;;;;;20.63;16.92;;;;;12.10;98907.00;;;;5055336;28;20040;-60
2023/04/30 03:37:04;;;;;;;22.23;17.83;;;;;12.10;98904.00;;;;5054362;28;20048;-59
2023/04/30 03:39:31;;;;;;;25.92;17.95;;;;;12.10;98897.00;;;;5054608;28;20489;-60
2023/04/30 03:41:58;;;;;;;21.35;17.73;;;;;12.10;98900.00;;;;5056077;28;20041;-60
2023/04/30 03:44:24;;;;;;;21.25;17.25;;;;;12.00;98908.00;;;;5054249;28;20052;-60
2023/04/30 03:46:51;;;;;;;21.60;17.38;;;;;12.00;98899.00;;;;5053804;28;20457;-59
2023/04/30 03:49:17;;;;;;;23.15;18.98;;;;;12.00;98905.00;;;;5054841;28;20056;-55
2023/04/30 03:51:44;;;;;;;24.15;19.08;;;;;12.00;98912.00;;;;5053726;28;20056;-56
2023/04/30 03:54:10;;;;;;;23.27;18.35;;;;;11.90;98902.00;;;;5053729;28;20069;-54
2023/04/30 03:56:37;;;;;;;26.05;19.90;;;;;12.00;98899.00;;;;5053582;28;20045;-58
2023/04/30 03:59:05;;;;;;;23.55;18.00;;;;;12.00;98909.00;;;;5053329;28;20506;-55
2023/04/30 04:01:32;;;;;;;30.83;18.63;;;;;12.00;98898.00;;;;5053845;28;20052;-57
2023/04/30 04:04:00;;;;;;;22.48;17.65;;;;;11.90;98898.00;;;;5055065;28;20045;-55
2023/04/30 04:06:26;;;;;;;23.65;19.38;;;;;11.90;98909.00;;;;5053503;28;20136;-57
2023/04/30 04:08:53;;;;;;;23.85;17.83;;;;;11.90;98898.00;;;;5053257;28;20048;-55
2023/04/30 04:11:21;;;;;;;23.38;18.88;;;;;11.90;98900.00;;;;5053540;28;20103;-56
2023/04/30 04:13:48;;;;;;;24.27;19.27;;;;;11.90;98898.00;;;;5054593;28;20048;-59
2023/04/30 04:16:14;;;;;;;23.63;18.40;;;;;11.90;98907.00;;;;5053105;28;20048;-57
2023/04/30 04:18:41;;;;;;;23.83;18.25;;;;;11.90;98909.00;;;;5052855;28;20045;-55
2023/04/30 04:21:08;;;;;;;27.85;18.30;;;;;11.90;98906.00;;;;5054484;28;20051;-58
2023/04/30 04:23:35;;;;;;;23.52;18.67;;;;;11.90;98908.00;;;;5060763;28;20041;-59
2023/04/30 04:26:02;;;;;;;24.83;20.02;;;;;11.80;98911.00;;;;5059021;28;20136;-57
2023/04/30 04:28:29;;;;;;;23.67;19.13;;;;;11.80;98917.00;;;;5053043;28;20041;-56
2023/04/30 04:30:55;;;;;;;21.92;18.38;;;;;11.90;98919.00;;;;5052867;28;20047;-55
2023/04/30 04:33:23;;;;;;;26.52;20.10;;;;;11.90;98915.00;;;;5036585;28;20564;-56
2023/04/30 04:35:49;;;;;;;22.95;18.20;;;;;11.80;98921.00;;;;5052900;28;20049;-55
2023/04/30 04:38:16;;;;;;;25.15;19.30;;;;;11.80;98915.00;;;;5054125;28;20044;-56
2023/04/30 04:40:50;;;;;;;24.05;19.25;;;;;11.80;98915.00;;;;5052705;28;20040;-56
2023/04/30 04:43:18;;;;;;;26.35;19.50;;;;;11.80;98915.00;;;;5052722;28;20048;-56
2023/04/30 04:45:46;;;;;;;27.75;19.75;;;;;11.90;98905.00;;;;5052612;28;20067;-57
2023/04/30 04:48:14;;;;;;;27.30;19.42;;;;;11.80;98909.00;;;;5052669;28;20071;-56
2023/04/30 04:50:40;;;;;;;26.77;20.05;;;;;11.80;98913.00;;;;5053730;28;20048;-57
2023/04/30 04:53:07;;;;;;;28.23;19.90;;;;;11.80;98910.00;;;;5035932;28;20057;-58
2023/04/30 04:55:34;;;;;;;24.25;19.30;;;;;11.80;98915.00;;;;5052494;28;20048;-57
2023/04/30 04:58:01;;;;;;;22.50;18.80;;;;;11.90;98915.00;;;;5052271;28;20041;-55
2023/04/30 05:00:28;;;;;;;24.70;19.08;;;;;11.90;98915.00;;;;5052245;28;20052;-55
2023/04/30 05:02:55;;;;;;;28.95;20.48;;;;;11.90;98922.00;;;;5052370;28;20132;-55
2023/04/30 05:05:22;;;;;;;22.02;18.23;;;;;11.90;98916.00;;;;5053581;28;20041;-58
2023/04/30 05:07:51;;;;;;;29.23;19.35;;;;;12.00;98919.00;;;;5052494;28;20063;-56
2023/04/30 05:10:17;;;;;;;24.55;20.38;;;;;12.00;98915.00;;;;5052041;28;20438;-57
2023/04/30 05:12:44;;;;;;;26.35;18.77;;;;;12.00;98919.00;;;;5053271;28;20107;-55
2023/04/30 05:15:10;;;;;;;23.77;18.50;;;;;12.10;98915.00;;;;5053450;28;20556;-56
2023/04/30 05:17:37;;;;;;;25.38;18.60;;;;;12.10;98919.00;;;;5053279;28;20041;-56
2023/04/30 05:20:06;;;;;;;21.90;18.90;;;;;12.20;98918.00;;;;5052937;28;20081;-55
2023/04/30 05:22:32;;;;;;;26.30;19.55;;;;;12.20;98918.00;;;;5053105;28;20429;-56
2023/04/30 05:24:59;;;;;;;27.15;20.13;;;;;12.20;98918.00;;;;5053244;28;20056;-57
2023/04/30 05:27:26;;;;;;;23.10;19.70;;;;;12.20;98923.00;;;;5053124;28;20087;-55
2023/04/30 05:29:53;;;;;;;22.33;18.35;;;;;12.30;98926.00;;;;5053044;28;20378;-58
2023/04/30 05:32:21;;;;;;;23.65;18.02;;;;;12.30;98922.00;;;;5053062;28;20049;-56
2023/04/30 05:34:48;;;;;;;21.50;17.33;;;;;12.30;98919.00;;;;5052108;28;20045;-59
2023/04/30 05:37:16;;;;;;;23.05;16.83;;;;;12.30;98920.00;;;;5051746;28;20045;-56
2023/04/30 05:39:43;;;;;;;20.30;16.73;;;;;12.40;98926.00;;;;5052646;28;20123;-55
2023/04/30 05:42:09;;;;;;;20.92;16.50;;;;;12.40;98921.00;;;;5052941;28;20095;-56
2023/04/30 05:44:36;;;;;;;22.70;16.77;;;;;12.50;98926.00;;;;5052544;28;20037;-55
2023/04/30 05:47:02;;;;;;;21.23;17.17;;;;;12.60;98931.00;;;;5052825;28;20041;-56
2023/04/30 05:49:29;;;;;;;27.33;18.60;;;;;12.70;98929.00;;;;5052394;28;20045;-58
2023/04/30 05:51:55;;;;;;;21.95;17.55;;;;;12.80;98923.00;;;;5052647;28;20071;-55
2023/04/30 05:54:22;;;;;;;21.25;17.52;;;;;12.80;98926.00;;;;5052636;28;20037;-55
2023/04/30 05:56:48;;;;;;;22.08;15.60;;;;;12.80;98915.00;;;;5052548;28;20519;-55
2023/04/30 05:59:15;;;;;;;22.70;16.85;;;;;12.90;98923.00;;;;5052362;28;20049;-59
2023/04/30 06:01:41;;;;;;;20.83;16.77;;;;;12.90;98925.00;;;;5052429;28;20072;-57
2023/04/30 06:04:08;;;;;;;22.65;17.83;;;;;12.90;98924.00;;;;5052512;28;20041;-57
2023/04/30 06:06:35;;;;;;;19.92;16.58;;;;;13.00;98922.00;;;;5052621;28;20045;-56
2023/04/30 06:09:02;;;;;;;21.95;16.05;;;;;13.00;98921.00;;;;5052395;28;20486;-56
2023/04/30 06:11:29;;;;;;;21.55;16.77;;;;;13.00;98929.00;;;;5052407;28;20067;-56
2023/04/30 06:13:57;;;;;;;19.73;15.82;;;;;13.20;98934.00;;;;5052239;28;20506;-56
2023/04/30 06:16:23;;;;;;;19.92;15.80;;;;;13.20;98936.00;;;;5052360;28;20102;-56
2023/04/30 06:18:50;;;;;;;19.52;15.02;;;;;13.20;98926.00;;;;5051966;28;20047;-57
2023/04/30 06:21:19;;;;;;;20.77;16.58;;;;;13.30;98930.00;;;;5052239;28;20529;-55
2023/04/30 06:23:46;;;;;;;19.42;15.60;;;;;13.30;98924.00;;;;5052157;28;20506;-60
2023/04/30 06:26:14;;;;;;;17.80;14.75;;;;;13.40;98927.00;;;;5052090;28;20052;-57
2023/04/30 06:28:40;;;;;;;17.30;14.98;;;;;13.40;98928.00;;;;5051826;28;20041;-57
2023/04/30 06:31:07;;;;;;;20.05;15.15;;;;;13.50;98926.00;;;;5052673;28;20053;-57
2023/04/30 06:33:34;;;;;;;20.13;14.60;;;;;13.50;98926.00;;;;5052709;28;20036;-61
2023/04/30 06:36:01;;;;;;;17.83;14.45;;;;;13.60;98915.00;;;;5051763;28;20056;-60
2023/04/30 06:38:28;;;;;;;18.27;14.15;;;;;13.60;98923.00;;;;5053664;28;20045;-61
2023/04/30 06:40:54;;;;;;;14.45;12.93;;;;;13.70;98921.00;;;;5053113;28;20095;-60
2023/04/30 06:43:21;;;;;;;15.35;12.77;;;;;13.70;98926.00;;;;5052602;28;20174;-59
2023/04/30 06:45:47;;;;;;;16.20;13.55;;;;;13.80;98935.00;;;;5052866;28;20099;-59
2023/04/30 06:48:14;;;;;;;16.67;13.32;;;;;13.80;98922.00;;;;5057224;28;20037;-61
2023/04/30 06:50:43;;;;;;;14.40;12.27;;;;;13.90;98925.00;;;;5057421;28;20055;-60
2023/04/30 06:53:14;;;;;;;15.10;12.85;;;;;14.00;98927.00;;;;5058518;28;20110;-60
2023/04/30 06:55:41;;;;;;;16.17;13.05;;;;;14.00;98928.00;;;;5057786;28;20059;-61
2023/04/30 06:58:07;;;;;;;17.73;15.07;;;;;14.10;98927.00;;;;5057948;28;20048;-60
2023/04/30 07:00:35;;;;;;;14.70;11.77;;;;;14.00;98932.00;;;;5057990;28;20045;-59
2023/04/30 07:03:03;;;;;;;12.50;10.55;;;;;14.00;98935.00;;;;5057575;28;20049;-60
2023/04/30 07:05:30;;;;;;;13.95;11.15;;;;;13.90;98931.00;;;;5057462;28;20076;-60
2023/04/30 07:08:00;;;;;;;13.05;10.63;;;;;13.90;98936.00;;;;5057928;28;20041;-60
2023/04/30 07:10:26;;;;;;;14.00;11.25;;;;;14.00;98928.00;;;;5057955;28;20098;-60
2023/04/30 07:12:53;;;;;;;12.50;10.07;;;;;14.00;98933.00;;;;5058675;28;20051;-61
2023/04/30 07:15:20;;;;;;;12.82;10.07;;;;;14.00;98932.00;;;;5057233;28;20045;-60
2023/04/30 07:17:46;;;;;;;12.52;10.50;;;;;14.00;98932.00;;;;5056935;28;20091;-60
2023/04/30 07:20:13;;;;;;;14.57;11.15;;;;;14.00;98928.00;;;;5057440;28;20041;-60
2023/04/30 07:22:43;;;;;;;16.25;11.43;;;;;14.10;98936.00;;;;5057170;28;20045;-59
2023/04/30 07:25:10;;;;;;;22.98;16.05;;;;;14.20;98929.00;;;;5055456;28;20057;-62
2023/04/30 07:27:37;;;;;;;16.70;14.20;;;;;14.30;98924.00;;;;5056106;28;20103;-61
2023/04/30 07:30:04;;;;;;;13.18;10.48;;;;;14.30;98927.00;;;;5055783;28;20107;-62
2023/04/30 07:32:33;;;;;;;15.80;9.88;;;;;14.30;98940.00;;;;5055794;28;20045;-61
2023/04/30 07:35:00;;;;;;;13.85;10.55;;;;;14.30;98939.00;;;;5055429;28;20063;-60
2023/04/30 07:37:27;;;;;;;14.35;9.70;;;;;14.20;98931.00;;;;5056285;28;20083;-60
2023/04/30 07:39:54;;;;;;;12.15;9.35;;;;;14.20;98939.00;;;;5055832;28;20048;-60
2023/04/30 07:42:21;;;;;;;11.23;9.60;;;;;14.30;98934.00;;;;5055814;28;20048;-59
2023/04/30 07:44:48;;;;;;;16.00;9.75;;;;;14.40;98936.00;;;;5055631;28;20045;-59
2023/04/30 07:47:14;;;;;;;14.48;9.68;;;;;14.40;98937.00;;;;5055708;28;20398;-60
2023/04/30 07:49:41;;;;;;;15.88;11.20;;;;;14.40;98933.00;;;;5055343;28;20441;-60
2023/04/30 07:52:09;;;;;;;14.35;10.25;;;;;14.50;98933.00;;;;5055132;28;20052;-61
2023/04/30 07:54:37;;;;;;;12.80;9.75;;;;;14.60;98931.00;;;;5055752;28;20129;-61
2023/04/30 07:57:05;;;;;;;13.85;10.48;;;;;14.70;98935.00;;;;5055052;28;20045;-61
2023/04/30 07:59:31;;;;;;;12.38;10.48;;;;;14.80;98941.00;;;;5053840;28;20047;-60
2023/04/30 08:01:58;;;;;;;15.73;12.20;;;;;14.90;98932.00;;;;5055386;28;20094;-60
2023/04/30 08:04:25;;;;;;;11.60;9.70;;;;;15.00;98937.00;;;;5054963;28;20051;-59
2023/04/30 08:06:52;;;;;;;12.98;9.48;;;;;15.00;98932.00;;;;5054973;28;20067;-60
2023/04/30 08:09:18;;;;;;;10.98;8.85;;;;;15.00;98931.00;;;;5053790;28;20474;-61
2023/04/30 08:11:45;;;;;;;13.90;10.57;;;;;15.10;98923.00;;;;5053876;28;20045;-61
2023/04/30 08:14:11;;;;;;;13.63;9.68;;;;;15.10;98926.00;;;;5053406;28;20049;-60
2023/04/30 08:16:38;;;;;;;10.48;8.55;;;;;15.30;98938.00;;;;5054900;28;20079;-60
2023/04/30 08:19:04;;;;;;;11.85;8.45;;;;;15.30;98933.00;;;;5054756;28;20068;-60
2023/04/30 08:21:32;;;;;;;12.35;8.68;;;;;15.20;98938.00;;;;5054838;28;20045;-60
2023/04/30 08:23:58;;;;;;;12.48;7.60;;;;;15.30;98928.00;;;;5053474;28;20049;-60
2023/04/30 08:26:25;;;;;;;9.05;7.80;;;;;15.40;98937.00;;;;5053963;28;20080;-60
2023/04/30 08:28:52;;;;;;;11.38;8.05;;;;;15.40;98932.00;;;;5060094;28;20037;-60
2023/04/30 08:31:19;;;;;;;11.35;9.20;;;;;15.40;98936.00;;;;5059020;28;20052;-60
2023/04/30 08:33:45;;;;;;;11.80;8.75;;;;;15.40;98932.00;;;;5055162;28;20397;-61
2023/04/30 08:36:12;;;;;;;13.52;9.20;;;;;15.70;98929.00;;;;5054404;28;20584;-61
2023/04/30 08:38:38;;;;;;;11.25;8.80;;;;;15.90;98932.00;;;;5054055;28;20052;-61
2023/04/30 08:41:11;;;;;;;10.75;9.02;;;;;16.20;98936.00;;;;5054407;28;20563;-60
2023/04/30 08:43:39;;;;;;;12.87;8.23;;;;;16.50;98939.00;;;;5054257;28;20088;-60
2023/04/30 08:46:08;;;;;;;10.32;7.55;;;;;16.60;98932.00;;;;5054450;28;20033;-62
2023/04/30 08:48:35;;;;;;;10.43;7.50;;;;;16.60;98935.00;;;;5053726;28;20401;-61
2023/04/30 08:51:02;;;;;;;11.20;8.52;;;;;16.30;98927.00;;;;5054090;28;20068;-60
2023/04/30 08:53:33;;;;;;;9.65;7.20;;;;;16.30;98934.00;;;;5052622;28;20056;-60
2023/04/30 08:56:00;;;;;;;8.60;6.55;;;;;16.10;98938.00;;;;5053874;28;20051;-61
2023/04/30 08:58:26;;;;;;;7.57;6.78;;;;;16.10;98930.00;;;;5053717;28;20048;-62
2023/04/30 09:00:53;;;;;;;9.27;6.70;;;;;16.00;98935.00;;;;5053897;28;20651;-59
2023/04/30 09:03:22;;;;;;;6.93;5.95;;;;;16.20;98927.00;;;;5054569;28;20041;-60
2023/04/30 09:05:49;;;;;;;7.63;5.07;;;;;16.30;98932.00;;;;5053616;28;20051;-58
2023/04/30 09:08:18;;;;;;;7.93;5.20;;;;;16.30;98921.00;;;;5052165;28;20045;-59
2023/04/30 09:10:45;;;;;;;6.78;5.68;;;;;16.40;98929.00;;;;5052245;28;20049;-57
2023/04/30 09:13:12;;;;;;;10.13;6.80;;;;;16.50;98934.00;;;;5054241;28;20041;-57
2023/04/30 09:15:40;;;;;;;12.10;8.45;;;;;16.50;98936.00;;;;5054200;28;20045;-56
2023/04/30 09:18:16;;;;;;;8.40;5.30;;;;;16.70;98923.00;;;;5054415;28;20037;-57
2023/04/30 09:21:00;;;;;;;9.32;5.40;;;;;16.70;98936.00;;;;5054516;28;20103;-58
2023/04/30 09:23:28;;;;;;;8.27;5.68;;;;;16.80;98925.00;;;;5055115;28;20044;-58
2023/04/30 09:25:58;;;;;;;6.25;5.55;;;;;16.90;98931.00;;;;5054017;28;20052;-59
2023/04/30 09:28:27;;;;;;;7.38;5.28;;;;;17.00;98932.00;;;;5036729;28;20049;-56
2023/04/30 09:30:57;;;;;;;5.32;4.82;;;;;16.90;98942.00;;;;5053169;28;20053;-56
2023/04/30 09:33:24;;;;;;;6.25;4.65;;;;;17.00;98937.00;;;;5054400;28;20052;-61
2023/04/30 09:35:50;;;;;;;4.90;4.40;;;;;17.00;98931.00;;;;5054604;28;20044;-59
2023/04/30 09:38:31;;;;;;;5.65;4.57;;;;;17.10;98935.00;;;;5054629;28;20067;-56
2023/04/30 09:40:59;;;;;;;6.63;5.25;;;;;17.00;98934.00;;;;5054742;28;20052;-57
2023/04/30 09:43:27;;;;;;;5.95;5.35;;;;;16.90;98931.00;;;;5054941;28;20559;-57
2023/04/30 09:45:54;;;;;;;5.65;5.13;;;;;16.70;98923.00;;;;5057118;28;20037;-60
2023/04/30 09:48:21;;;;;;;5.47;4.97;;;;;16.80;98932.00;;;;5058244;28;20056;-59
2023/04/30 09:50:50;;;;;;;6.35;5.15;;;;;16.90;98929.00;;;;5058134;28;20045;-60
2023/04/30 09:53:17;;;;;;;5.50;4.55;;;;;17.00;98921.00;;;;5056235;28;20049;-62
2023/04/30 09:55:45;;;;;;;6.53;5.80;;;;;17.10;98922.00;;;;5057267;28;20045;-60
2023/04/30 09:58:13;;;;;;;5.63;4.07;;;;;17.00;98933.00;;;;5058723;28;20049;-59
2023/04/30 10:00:41;;;;;;;6.10;4.65;;;;;16.90;98941.00;;;;5057814;28;20083;-60
2023/04/30 10:03:12;;;;;;;6.47;4.32;;;;;17.00;98929.00;;;;5053603;28;20045;-60
2023/04/30 10:05:47;;;;;;;5.18;4.22;;;;;17.00;98939.00;;;;5053006;28;20037;-62
2023/04/30 10:08:23;;;;;;;5.88;5.30;;;;;16.90;98932.00;;;;5053498;28;20052;-60
2023/04/30 10:11:03;;;;;;;7.18;5.57;;;;;16.80;98936.00;;;;5051742;28;20049;-55
2023/04/30 10:13:40;;;;;;;8.32;4.80;;;;;16.70;98942.00;;;;5051199;28;20075;-56
2023/04/30 10:16:17;;;;;;;7.00;4.93;;;;;16.80;98939.00;;;;5052420;28;20116;-57
2023/04/30 10:18:47;;;;;;;4.85;4.35;;;;;16.80;98928.00;;;;5052152;28;20488;-59
2023/04/30 10:21:17;;;;;;;5.13;4.25;;;;;16.90;98939.00;;;;5051923;28;20055;-55
2023/04/30 10:23:45;;;;;;;5.35;3.72;;;;;16.90;98924.00;;;;5052297;28;20041;-57
2023/04/30 10:26:11;;;;;;;6.10;4.13;;;;;16.90;98925.00;;;;5051012;28;20049;-55
2023/04/30 10:28:39;;;;;;;6.13;3.88;;;;;16.90;98926.00;;;;5051802;28;20102;-57
2023/04/30 10:31:09;;;;;;;5.38;3.40;;;;;17.00;98919.00;;;;5052240;28;20083;-59
2023/04/30 10:33:48;;;;;;;3.50;3.20;;;;;17.20;98912.00;;;;5050663;28;20080;-55
2023/04/30 10:36:24;;;;;;;4.70;3.35;;;;;17.30;98905.00;;;;5052050;28;20040;-55
2023/04/30 10:38:52;;;;;;;4.63;3.20;;;;;17.50;98906.00;;;;5052714;28;20033;-57
2023/04/30 10:41:19;;;;;;;4.65;3.08;;;;;17.60;98907.00;;;;5051236;28;20049;-58
2023/04/30 10:43:46;;;;;;;5.18;2.97;;;;;17.80;98906.00;;;;5052161;28;20044;-56
2023/04/30 10:46:21;;;;;;;3.58;2.60;;;;;17.70;98905.00;;;;5052048;28;20045;-55
2023/04/30 10:48:48;;;;;;;4.38;3.40;;;;;17.70;98900.00;;;;5051899;28;20041;-55
2023/04/30 10:51:14;;;;;;;4.38;3.58;;;;;17.80;98899.00;;;;5052207;28;20529;-57
2023/04/30 10:53:42;;;;;;;4.82;3.03;;;;;17.90;98889.00;;;;5051915;28;20095;-58
2023/04/30 10:56:09;;;;;;;3.40;2.30;;;;;18.00;98877.00;;;;5052324;28;20057;-57
2023/04/30 10:58:40;;;;;;;3.80;2.88;;;;;18.10;98884.00;;;;5051951;28;20067;-57
2023/04/30 11:01:07;;;;;;;4.70;3.03;;;;;18.10;98888.00;;;;5052184;28;20560;-57
2023/04/30 11:03:36;;;;;;;4.72;3.17;;;;;18.30;98884.00;;;;5050772;28;20555;-56
2023/04/30 11:06:13;;;;;;;3.65;3.13;;;;;18.50;98887.00;;;;5052216;28;20087;-56
2023/04/30 11:08:47;;;;;;;5.30;3.10;;;;;18.50;98883.00;;;;5051790;28;20076;-57
2023/04/30 11:11:19;;;;;;;;;;;;;18.50;98900.00;;;;5051478;28;20107;-58
2023/04/30 11:13:56;;;;;;;6.03;3.65;;;;;18.40;98891.00;;;;5052058;28;19928;-57
2023/04/30 11:16:29;;;;;;;5.90;3.65;;;;;18.30;98895.00;;;;5051960;28;20048;-55
2023/04/30 11:19:12;;;;;;;4.63;3.15;;;;;18.20;98883.00;;;;5051459;28;20069;-58
2023/04/30 11:22:04;;;;;;;3.15;2.72;;;;;18.10;98897.00;;;;5046571;28;20048;-57
2023/04/30 11:24:53;;;;;;;3.75;3.22;;;;;18.20;98880.00;;;;5035653;28;20038;-57
2023/04/30 11:27:24;;;;;;;4.45;2.97;;;;;18.40;98876.00;;;;5031913;28;20033;-55
2023/04/30 11:29:52;;;;;;;4.00;3.30;;;;;18.70;98874.00;;;;5031992;28;20060;-57
2023/04/30 11:32:20;;;;;;;5.10;2.90;;;;;18.70;98875.00;;;;5031441;28;20498;-55
2023/04/30 11:34:47;;;;;;;4.25;3.15;;;;;18.70;98870.00;;;;5047103;28;20052;-55
2023/04/30 11:37:31;;;;;;;4.30;2.92;;;;;18.70;98879.00;;;;5040668;28;20045;-60
2023/04/30 11:40:01;;;;;;;4.13;3.33;;;;;18.80;98875.00;;;;5034394;28;20056;-55
2023/04/30 11:42:29;;;;;;;5.70;3.50;;;;;18.90;98862.00;;;;5035358;28;20084;-56
2023/04/30 11:45:06;;;;;;;4.20;3.55;;;;;19.00;98871.00;;;;5035565;28;20069;-54
2023/04/30 11:47:50;;;;;;;2.67;2.47;;;;;19.10;98862.00;;;;5035456;28;20052;-57
2023/04/30 11:50:20;;;;;;;4.28;2.85;;;;;19.10;98863.00;;;;5034983;28;20524;-56
2023/04/30 11:52:49;;;;;;;4.75;2.80;;;;;19.00;98862.00;;;;5033904;28;20056;-57
2023/04/30 11:55:18;;;;;;;4.05;2.53;;;;;19.00;98867.00;;;;5035346;28;20037;-57
2023/04/30 11:57:47;;;;;;;3.60;2.70;;;;;19.00;98862.00;;;;5035147;28;20045;-56
2023/04/30 12:00:17;;;;;;;4.25;2.85;;;;;18.80;98851.00;;;;5034570;28;20487;-57
2023/04/30 12:02:45;;;;;;;4.53;3.25;;;;;18.90;98861.00;;;;5034945;28;20041;-57
2023/04/30 12:05:14;;;;;;;4.13;3.58;;;;;18.80;98866.00;;;;5033563;28;20453;-56
2023/04/30 12:07:46;;;;;;;3.90;2.80;;;;;18.70;98865.00;;;;5037274;28;20047;-55
2023/04/30 12:10:12;;;;;;;5.50;2.80;;;;;18.50;98862.00;;;;5044168;28;20041;-55
2023/04/30 12:12:39;;;;;;;5.75;2.30;;;;;18.50;98857.00;;;;5043402;28;20128;-55
2023/04/30 12:15:16;;;;;;;4.35;2.92;;;;;18.40;98852.00;;;;5038856;28;20502;-58